Rancho Penasquitos (500, 13811) Station Data

Red Flag Warning: No
Fire Weather Zone: 250
SDGE Region: North East
Lat/Lon: 32.972/-117.117

Observations

Time Wind Speed/Gust Temp(F) RH Fuel Moist Fuel Temp(F) Dewpt(F) Tmax(F) Tmin(F) Accum Precip 10-min Precip SL Press(mb)
6/27 4:50pm 259 5 G 7 78° 52% - - 59° 84.8° 68.9° - - -
6/27 4:40pm 260 6 G 9 78° 53% - - 59° 84.8° 68.9° - - -
6/27 4:30pm 275 6 G 10 78° 54% - - 60° 84.8° 68.9° - - -
6/27 4:20pm 268 6 G 11 79° 51% - - 59° 84.8° 68.9° - - -
6/27 4:10pm 253 6 G 10 79° 49% - - 58° 84.8° 68.9° - - -
6/27 4:00pm 257 6 G 9 79° 49% - - 58° 84.8° 68.9° - - -
6/27 3:50pm 259 6 G 10 79° 51% - - 59° 84.8° 68.9° - - -
6/27 3:40pm 282 6 G 11 79° 52% - - 60° 84.8° 68.9° - - -
6/27 3:30pm 265 6 G 10 79° 52% - - 60° 84.8° 68.9° - - -
6/27 3:20pm 268 6 G 11 79° 53% - - 60° 84.8° 68.9° - - -
6/27 3:10pm 241 6 G 9 79° 53% - - 60° 84.8° 68.9° - - -
6/27 3:00pm 272 6 G 11 80° 52% - - 60° 84.8° 68.9° - - -
6/27 2:50pm 257 6 G 11 79° 54% - - 61° 84.8° 68.9° - - -
6/27 2:40pm 252 6 G 10 79° 55% - - 61° 84.8° 68.9° - - -
6/27 2:30pm 265 7 G 12 79° 56% - - 62° 84.8° 68.9° - - -
6/27 2:20pm 257 6 G 9 79° 56% - - 62° 84.8° 68.9° - - -
6/27 2:10pm 266 7 G 11 80° 55% - - 62° 84.8° 68.9° - - -
6/27 2:00pm 257 7 G 10 80° 53% - - 61° 84.8° 68.9° - - -
6/27 1:50pm 261 6 G 11 80° 53% - - 62° 84.8° 68.9° - - -
6/27 1:40pm 253 6 G 10 80° 54% - - 62° 84.8° 68.9° - - -
6/27 1:30pm 265 7 G 13 81° 53% - - 63° 84.8° 68.9° - - -
6/27 1:20pm 275 6 G 13 81° 53% - - 62° 84.8° 68.9° - - -
6/27 1:10pm 269 7 G 12 81° 53% - - 62° 84.8° 68.9° - - -
6/27 1:00pm 277 6 G 10 82° 52% - - 62° 84.8° 68.9° - - -
6/27 12:50pm 265 6 G 10 83° 51% - - 63° 84.8° 68.9° - - -
6/27 12:40pm 279 6 G 10 83° 51% - - 63° 84.8° 68.9° - - -
6/27 12:30pm 264 5 G 10 83° 51% - - 63° 84.8° 68.9° - - -
6/27 12:20pm 263 5 G 10 82° 53% - - 63° 84.8° 68.9° - - -
6/27 12:10pm 262 6 G 9 81° 54% - - 63° 84.8° 68.9° - - -
6/27 12:00pm 259 6 G 11 83° 52% - - 63° 84.8° 68.9° - - -
6/27 11:50am 268 5 G 8 83° 51% - - 63° 84.8° 68.9° - - -
6/27 11:40am 267 6 G 9 84° 49% - - 63° 84.8° 68.9° - - -
6/27 11:30am 253 5 G 8 84° 46% - - 61° 84.8° 68.9° - - -
6/27 11:20am 263 4 G 8 84° 45% - - 61° 84.8° 68.9° - - -
6/27 11:10am 251 4 G 9 84° 44% - - 60° 84.8° 68.9° - - -
6/27 11:00am 252 4 G 8 84° 43% - - 59° 84.4° 68.9° - - -
6/27 10:50am 251 4 G 8 83° 40% - - 57° 84.1° 68.9° - - -
6/27 10:40am 231 4 G 8 83° 37% - - 54° 83.9° 68.9° - - -
6/27 10:30am 243 3 G 6 83° 34% - - 52° 83.9° 68.9° - - -
6/27 10:20am 242 4 G 6 82° 32% - - 50° 83.5° 68.9° - - -
6/27 10:10am 238 4 G 6 82° 36% - - 52° 83.5° 68.9° - - -
6/27 10:00am 251 4 G 7 82° 39% - - 54° 83.5° 68.9° - - -
6/27 9:50am 255 5 G 7 81° 44% - - 57° 83.5° 68.9° - - -
6/27 9:40am 257 5 G 7 81° 45% - - 58° 83.5° 68.9° - - -
6/27 9:30am 260 4 G 6 81° 44% - - 57° 83.5° 68.9° - - -
6/27 9:20am 254 4 G 6 80° 45% - - 57° 83.5° 68.9° - - -
6/27 9:10am 257 4 G 7 80° 44% - - 56° 83.5° 68.9° - - -
6/27 8:50am 213 2 G 4 82° 35% - - 52° 83.5° 68.9° - - -
6/27 8:40am 241 1 G 2 80° 35% - - 50° 81.7° 68.9° - - -
6/27 8:30am 208 1 G 3 79° 36% - - 49° 81.7° 68.9° - - -
6/27 8:20am 174 1 G 2 80° 35% - - 50° 81.7° 68.9° - - -
6/27 8:10am 134 1 G 3 80° 33% - - 49° 81.7° 68.9° - - -
6/27 8:00am 151 1 G 2 80° 33% - - 48° 81.7° 68.9° - - -
6/27 7:50am 209 0 G 1 79° 32% - - 46° 81.7° 68.9° - - -
6/27 7:40am 220 0 G 1 78° 32% - - 46° 81.7° 68.9° - - -
6/27 7:10am 6 1 G 3 76° 28% - - 41° 81° 68.9° - - -
6/27 7:00am 49 0 G 1 76° 32% - - 44° 81° 68.9° - - -
6/27 6:50am 140 1 G 2 75° 33% - - 44° 81° 68.9° - - -
6/27 6:40am 354 1 G 2 72° 35% - - 43° 81° 68.9° - - -
6/27 6:30am 356 1 G 4 71° 35% - - 42° 81° 68.9° - - -
6/27 6:20am 357 1 G 3 73° 33% - - 42° 81° 68.9° - - -
6/27 6:10am 356 2 G 3 73° 34% - - 43° 81° 68.9° - - -
6/27 6:00am 346 2 G 3 73° 33% - - 42° 81° 68.9° - - -
6/27 5:50am 313 1 G 2 73° 32% - - 42° 81° 68.9° - - -
6/27 5:40am 345 2 G 3 73° 33% - - 42° 81° 68.9° - - -
6/27 5:30am 218 1 G 2 73° 33% - - 42° 81° 68.9° - - -
6/27 5:20am 159 1 G 2 73° 29% - - 39° 81° 68.9° - - -
6/27 5:10am 57 2 G 3 70° 35% - - 41° 81° 68.9° - - -
6/27 5:00am 117 2 G 5 75° 31% - - 42° 81° 69.7° - - -
6/27 4:50am 74 2 G 3 78° 24% - - 39° 81° 72° - - -
6/27 4:40am 0 2 G 4 77° 25% - - 39° 81° 72° - - -
6/27 4:30am 77 2 G 4 78° 27% - - 42° 81° 72° - - -
6/27 4:20am 107 3 G 5 75° 30% - - 42° 81° 72° - - -
6/27 4:10am 51 1 G 3 78° 27% - - 41° 81° 72° - - -
6/27 4:00am 22 2 G 3 78° 26% - - 41° 81° 72° - - -
6/27 3:50am 341 1 G 2 80° 27% - - 43° 81° 72° - - -
6/27 3:40am 9 2 G 3 78° 28% - - 42° 80.7° 72° - - -
6/27 3:30am 88 2 G 4 79° 26% - - 41° 80.7° 72° - - -
6/27 3:20am 24 2 G 3 78° 28% - - 42° 80.7° 72° - - -
6/27 3:10am 351 2 G 5 76° 28% - - 41° 80.7° 72° - - -
6/27 3:00am 360 2 G 4 77° 28% - - 41° 80.7° 72° - - -
6/27 2:50am 323 0 G 2 77° 29% - - 43° 80.7° 72° - - -
6/27 2:40am 330 2 G 4 77° 28% - - 41° 80.7° 72° - - -
6/27 2:30am 301 0 G 2 79° 26% - - 42° 80.7° 72° - - -
6/27 2:20am 107 2 G 4 80° 26% - - 42° 80.7° 72° - - -
6/27 2:10am 88 4 G 5 80° 28% - - 44° 80.6° 72° - - -
6/27 2:00am 90 4 G 6 79° 30% - - 45° 80.6° 72° - - -
6/27 1:50am 102 3 G 6 80° 26% - - 42° 80.6° 72° - - -
6/27 1:40am 62 3 G 5 77° 25% - - 39° 80.5° 72° - - -
6/27 1:30am 90 2 G 4 73° 35% - - 44° 79.1° 72° - - -
6/27 1:20am 150 1 G 2 77° 29% - - 42° 79.1° 75° - - -
6/27 1:10am 110 1 G 2 76° 28% - - 41° 79.1° 75.8° - - -
6/27 1:00am 134 1 G 2 78° 25% - - 40° 79.1° 75.8° - - -
6/27 12:50am 99 1 G 2 78° 25% - - 39° 79.1° 75.8° - - -
6/27 12:40am 153 0 G 1 76° 26% - - 39° 77.7° 75.8° - - -
6/27 12:30am 139 0 G 1 76° 25% - - 38° 77.7° 75.8° - - -
6/27 12:20am 345 2 G 3 76° 26% - - 38° 77.7° 75.8° - - -
6/27 12:10am 9 0 G 2 77° 28% - - 41° 77.7° 76° - - -
6/27 12:00am 344 1 G 2 78° 26% - - 40° 88.8° 67.7° - - -
6/26 11:50pm 341 2 G 4 79° 21% - - 36° 88.8° 67.7° - - -
6/26 11:40pm 321 1 G 3 80° 18% - - 32° 88.8° 67.7° - - -
6/26 11:30pm 330 0 G 1 81° 16% - - 30° 88.8° 67.7° - - -
6/26 11:20pm 322 1 G 2 81° 15% - - 28° 88.8° 67.7° - - -
6/26 11:10pm 250 1 G 2 82° 14% - - 28° 88.8° 67.7° - - -
6/26 11:00pm 163 0 G 2 81° 15% - - 28° 88.8° 67.7° - - -
6/26 10:50pm 347 3 G 8 82° 14% - - 28° 88.8° 67.7° - - -
6/26 10:40pm 340 6 G 9 84° 13% - - 27° 88.8° 67.7° - - -
6/26 10:30pm 338 7 G 11 84° 13% - - 29° 88.8° 67.7° - - -
6/26 10:20pm 336 10 G 17 84° 14% - - 29° 88.8° 67.7° - - -
6/26 10:10pm 335 12 G 19 84° 15% - - 31° 88.8° 67.7° - - -
6/26 10:00pm 339 12 G 19 85° 14% - - 30° 88.8° 67.7° - - -
6/26 9:50pm 338 11 G 15 83° 16% - - 33° 88.8° 67.7° - - -
6/26 9:40pm 335 10 G 15 81° 21% - - 38° 88.8° 67.7° - - -
6/26 9:30pm 333 8 G 12 81° 23% - - 39° 88.8° 67.7° - - -
6/26 9:20pm 332 9 G 12 81° 23% - - 40° 88.8° 67.7° - - -
6/26 9:10pm 333 7 G 12 79° 29% - - 43° 88.8° 67.7° - - -
6/26 9:00pm 299 1 G 4 73° 60% - - 59° 88.8° 67.7° - - -
6/26 8:50pm 297 3 G 5 74° 60% - - 59° 88.8° 67.7° - - -
6/26 8:40pm 292 2 G 5 76° 55% - - 59° 88.8° 67.7° - - -
6/26 8:30pm 209 0 G 2 77° 55% - - 59° 88.8° 67.7° - - -
6/26 8:20pm 311 1 G 2 77° 54% - - 59° 88.8° 67.7° - - -
6/26 8:10pm 286 2 G 2 78° 50% - - 58° 88.8° 67.7° - - -
6/26 8:00pm 301 1 G 2 79° 51% - - 59° 88.8° 67.7° - - -
6/26 7:50pm 291 1 G 2 80° 50% - - 60° 88.8° 67.7° - - -
6/26 7:40pm 263 1 G 2 81° 49% - - 60° 88.8° 67.7° - - -
6/26 7:30pm 274 3 G 4 82° 46% - - 59° 88.8° 67.7° - - -
6/26 7:20pm 294 4 G 5 82° 43% - - 58° 88.8° 67.7° - - -
6/26 7:10pm 299 5 G 7 83° 43% - - 58° 88.8° 67.7° - - -
6/26 7:00pm 292 6 G 8 83° 43% - - 59° 88.8° 67.7° - - -
6/26 6:50pm 287 4 G 7 84° 43% - - 58° 88.8° 67.7° - - -
6/26 6:40pm 268 4 G 6 84° 42% - - 58° 88.8° 67.7° - - -
6/26 6:30pm 279 4 G 8 84° 41% - - 57° 88.8° 67.7° - - -
6/26 6:20pm 279 5 G 8 84° 39% - - 56° 88.8° 67.7° - - -
6/26 6:10pm 297 6 G 9 84° 37% - - 55° 88.8° 67.7° - - -
6/26 6:00pm 296 7 G 10 84° 39% - - 57° 88.8° 67.7° - - -
6/26 5:50pm 292 7 G 11 85° 39% - - 57° 88.8° 67.7° - - -
6/26 5:40pm 290 7 G 10 85° 39% - - 57° 88.8° 67.7° - - -
6/26 5:30pm 297 8 G 12 85° 38% - - 57° 88.8° 67.7° - - -
6/26 5:20pm 300 8 G 12 86° 37% - - 56° 88.8° 67.7° - - -
6/26 5:10pm 304 9 G 13 86° 36% - - 56° 88.8° 67.7° - - -
6/26 5:00pm 296 8 G 12 86° 34% - - 54° 88.8° 67.7° - - -
6/26 4:50pm 296 9 G 13 87° 33% - - 54° 88.8° 67.7° - - -
6/26 4:40pm 300 9 G 13 87° 34% - - 55° 88.8° 67.7° - - -
6/26 4:30pm 296 9 G 14 87° 35% - - 56° 88.8° 67.7° - - -
6/26 4:20pm 286 9 G 13 87° 34% - - 56° 88.8° 67.7° - - -
6/26 4:10pm 293 9 G 14 87° 36% - - 56° 88.8° 67.7° - - -
6/26 4:00pm 302 9 G 13 87° 37% - - 57° 88.8° 67.7° - - -
6/26 3:50pm 288 9 G 13 87° 37% - - 57° 88.8° 67.7° - - -
6/26 3:40pm 284 8 G 13 87° 36% - - 57° 88.8° 67.7° - - -
6/26 3:30pm 276 8 G 11 87° 37% - - 58° 88.8° 67.7° - - -
6/26 3:20pm 285 7 G 11 86° 39% - - 58° 88.8° 67.7° - - -
6/26 3:10pm 277 8 G 12 86° 39% - - 58° 88.8° 67.7° - - -
6/26 3:00pm 286 8 G 13 86° 40% - - 58° 88.8° 67.7° - - -
6/26 2:50pm 281 8 G 11 86° 40% - - 59° 88.8° 67.7° - - -
6/26 2:40pm 273 7 G 10 86° 41% - - 60° 88.8° 67.7° - - -
6/26 2:30pm 285 6 G 10 88° 40% - - 61° 88.8° 67.7° - - -
6/26 2:20pm 283 6 G 10 87° 42% - - 61° 88.2° 67.7° - - -
6/26 2:10pm 269 6 G 9 86° 43% - - 61° 87.3° 67.7° - - -
6/26 2:00pm 270 6 G 9 86° 44% - - 61° 87.3° 67.7° - - -
6/26 1:50pm 274 6 G 10 86° 45% - - 62° 87.3° 67.7° - - -
6/26 1:40pm 272 5 G 8 86° 46% - - 62° 87.3° 67.7° - - -
6/26 1:30pm 268 5 G 8 85° 48% - - 63° 86.1° 67.7° - - -
6/26 1:20pm 265 5 G 8 84° 50% - - 63° 85.6° 67.7° - - -
6/26 1:10pm 256 4 G 7 83° 52% - - 64° 85.6° 67.7° - - -
6/26 1:00pm 258 5 G 8 83° 53% - - 64° 85.6° 67.7° - - -
6/26 12:50pm 270 6 G 10 85° 52% - - 65° 85.6° 67.7° - - -
6/26 12:40pm 252 6 G 9 84° 53% - - 65° 85.6° 67.7° - - -
6/26 12:30pm 244 4 G 7 84° 52% - - 65° 85.6° 67.7° - - -
6/26 12:20pm 258 5 G 10 84° 53% - - 65° 85.6° 67.7° - - -
6/26 12:10pm 239 4 G 7 83° 55% - - 65° 85.6° 67.7° - - -
6/26 12:00pm 253 4 G 8 82° 55% - - 64° 85.6° 67.7° - - -
6/26 11:50am 253 4 G 8 83° 54% - - 64° 85.6° 67.7° - - -
6/26 11:40am 258 4 G 7 82° 55% - - 64° 85.6° 67.7° - - -
6/26 11:30am 267 5 G 8 82° 55% - - 65° 85.6° 67.7° - - -
6/26 11:20am 246 5 G 8 82° 55% - - 64° 85.6° 67.7° - - -
6/26 11:10am 257 4 G 7 83° 54% - - 65° 85.6° 67.7° - - -
6/26 11:00am 274 5 G 8 83° 54% - - 65° 85.6° 67.7° - - -
6/26 10:50am 248 4 G 8 83° 52% - - 64° 85.6° 67.7° - - -
6/26 10:40am 241 5 G 9 84° 51% - - 64° 85.6° 67.7° - - -
6/26 10:30am 242 3 G 6 85° 47% - - 62° 85.6° 67.7° - - -
6/26 10:20am 257 4 G 7 84° 48% - - 62° 85.1° 67.7° - - -
6/26 10:10am 202 3 G 6 83° 50% - - 62° 83.7° 67.7° - - -
6/26 10:00am 231 3 G 6 83° 49% - - 62° 83.7° 67.7° - - -
6/26 9:50am 192 4 G 6 82° 49% - - 61° 83.7° 67.7° - - -
6/26 9:40am 207 3 G 5 81° 51% - - 62° 83.2° 67.7° - - -
6/26 9:30am 212 3 G 6 81° 52% - - 62° 83.2° 67.7° - - -
6/26 9:20am 214 3 G 6 81° 52% - - 62° 83.2° 67.7° - - -
6/26 9:10am 198 2 G 4 81° 53% - - 62° 83.2° 67.7° - - -
6/26 9:00am 202 2 G 3 80° 54% - - 62° 83.2° 67.7° - - -
6/26 8:50am 208 2 G 4 81° 54% - - 62° 83.2° 67.7° - - -
6/26 8:40am 178 2 G 3 82° 51% - - 62° 83.2° 67.7° - - -
6/26 8:30am 149 2 G 4 80° 53% - - 61° 83.2° 67.7° - - -
6/26 8:20am 132 2 G 4 80° 53% - - 61° 83.2° 67.7° - - -
6/26 8:10am 141 2 G 3 80° 51% - - 61° 83.2° 67.7° - - -
6/26 8:00am 145 1 G 3 80° 51% - - 60° 83.2° 67.7° - - -
6/26 7:50am 132 2 G 3 79° 51% - - 59° 83.2° 67.7° - - -
6/26 7:40am 138 2 G 4 82° 44% - - 58° 83.2° 67.7° - - -
6/26 7:30am 144 1 G 1 82° 43% - - 57° 83° 67.7° - - -
6/26 7:20am 231 0 G 1 80° 43% - - 56° 83° 67.7° - - -
6/26 7:10am 179 0 G 1 81° 39% - - 54° 83° 67.7° - - -
6/26 7:00am 124 1 G 2 80° 39% - - 53° 83° 67.7° - - -
6/26 6:50am 139 0 G 2 82° 37% - - 54° 83° 67.7° - - -
6/26 6:40am 349 1 G 3 80° 38% - - 52° 81.4° 67.7° - - -
6/26 6:30am 330 3 G 4 77° 49% - - 56° 78.8° 67.7° - - -
6/26 6:20am 314 2 G 4 77° 45% - - 54° 78.8° 67.7° - - -
6/26 6:10am 151 0 G 1 77° 47% - - 56° 78.8° 67.7° - - -
6/26 6:00am 46 1 G 3 77° 46% - - 55° 78.8° 67.7° - - -